Time;durP1;ratioP1;P1;durP2;ratioP2;P2;SDS_P1;SDS_P2;PMS_P1;PMS_P2;Temp;Humidity;BMP_temperature;BMP_pressure;BME280_temperature;BME280_humidity;BME280_pressure;Samples;Min_cycle;Max_cycle;Signal;HPM_P1;HPM_P2
2023/07/03 00:01:15;;;;;;;5.37;4.40;;;;;;;;;;5033064;28;21030;-56
2023/07/03 00:03:44;;;;;;;6.70;4.30;;;;;;;;;;5032801;28;20513;-57
2023/07/03 00:06:10;;;;;;;6.13;4.37;;;;;;;;;;5032616;28;20548;-57
2023/07/03 00:08:37;;;;;;;7.00;5.17;;;;;;;;;;5032849;28;20491;-57
2023/07/03 00:11:05;;;;;;;7.70;5.00;;;;;;;;;;5032855;28;20488;-55
2023/07/03 00:13:32;;;;;;;7.50;5.07;;;;;;;;;;5032768;28;21022;-57
2023/07/03 00:15:59;;;;;;;7.20;5.00;;;;;;;;;;5032851;28;20839;-57
2023/07/03 00:18:26;;;;;;;5.23;4.57;;;;;;;;;;5032662;28;20534;-57
2023/07/03 00:20:54;;;;;;;5.10;4.43;;;;;;;;;;5032740;28;21023;-57
2023/07/03 00:23:21;;;;;;;6.20;4.60;;;;;;;;;;5032884;28;20478;-57
2023/07/03 00:25:49;;;;;;;6.60;4.70;;;;;;;;;;5032835;28;20547;-57
2023/07/03 00:28:16;;;;;;;5.40;4.87;;;;;;;;;;5032688;28;20463;-57
2023/07/03 00:30:43;;;;;;;6.00;4.80;;;;;;;;;;5032602;28;20483;-57
2023/07/03 00:33:10;;;;;;;5.50;4.80;;;;;;;;;;5032592;28;20736;-57
2023/07/03 00:35:37;;;;;;;6.87;4.83;;;;;;;;;;5032626;28;20449;-56
2023/07/03 00:38:06;;;;;;;4.97;4.43;;;;;;;;;;5032680;28;20560;-56
2023/07/03 00:40:32;;;;;;;6.57;4.67;;;;;;;;;;5032689;28;20496;-57
2023/07/03 00:43:00;;;;;;;6.97;4.73;;;;;;;;;;5032607;28;20547;-57
2023/07/03 00:45:28;;;;;;;8.30;5.20;;;;;;;;;;5032498;28;20457;-57
2023/07/03 00:47:55;;;;;;;5.93;4.90;;;;;;;;;;5032680;28;20501;-57
2023/07/03 00:50:22;;;;;;;6.07;4.00;;;;;;;;;;5032598;28;20486;-57
2023/07/03 00:52:51;;;;;;;9.50;4.77;;;;;;;;;;5032578;28;20459;-57
2023/07/03 00:55:20;;;;;;;8.90;4.87;;;;;;;;;;5032336;28;20453;-57
2023/07/03 00:57:47;;;;;;;6.27;4.70;;;;;;;;;;5032488;28;21009;-57
2023/07/03 01:00:15;;;;;;;5.50;5.00;;;;;;;;;;5032301;28;20457;-57
2023/07/03 01:02:46;;;;;;;4.63;4.20;;;;;;;;;;5032595;28;20547;-57
2023/07/03 01:05:17;;;;;;;7.77;4.90;;;;;;;;;;5032453;28;20448;-57
2023/07/03 01:07:45;;;;;;;6.50;4.83;;;;;;;;;;5032449;28;21031;-57
2023/07/03 01:10:14;;;;;;;9.07;4.70;;;;;;;;;;5032239;28;20480;-57
2023/07/03 01:12:44;;;;;;;5.73;4.87;;;;;;;;;;5032226;28;20547;-58
2023/07/03 01:15:12;;;;;;;6.87;4.40;;;;;;;;;;5032484;28;20462;-57
2023/07/03 01:17:40;;;;;;;6.63;4.77;;;;;;;;;;5034861;28;20546;-55
2023/07/03 01:20:09;;;;;;;6.20;4.93;;;;;;;;;;5035856;28;20462;-56
2023/07/03 01:22:38;;;;;;;7.73;4.97;;;;;;;;;;5035866;28;20460;-58
2023/07/03 01:25:08;;;;;;;6.67;4.63;;;;;;;;;;5035762;28;20552;-56
2023/07/03 01:27:36;;;;;;;6.97;4.90;;;;;;;;;;5036190;28;20999;-56
2023/07/03 01:30:06;;;;;;;10.67;5.43;;;;;;;;;;5035726;28;20449;-57
2023/07/03 01:32:34;;;;;;;6.93;5.00;;;;;;;;;;5035658;28;20456;-57
2023/07/03 01:35:03;;;;;;;8.40;5.77;;;;;;;;;;5035639;28;20547;-57
2023/07/03 01:37:31;;;;;;;7.50;5.57;;;;;;;;;;5035448;28;20479;-57
2023/07/03 01:39:59;;;;;;;6.90;5.33;;;;;;;;;;5035643;28;20483;-58
2023/07/03 01:42:29;;;;;;;6.27;5.00;;;;;;;;;;5035598;28;20539;-57
2023/07/03 01:44:56;;;;;;;7.63;5.30;;;;;;;;;;5036014;28;20548;-56
2023/07/03 01:47:23;;;;;;;7.63;4.87;;;;;;;;;;5035419;28;20522;-57
2023/07/03 01:49:50;;;;;;;9.27;5.23;;;;;;;;;;5035254;28;20542;-56
2023/07/03 01:52:19;;;;;;;8.20;4.63;;;;;;;;;;5035094;28;20491;-57
2023/07/03 01:54:51;;;;;;;7.57;5.83;;;;;;;;;;5035346;28;20455;-57
2023/07/03 01:57:21;;;;;;;9.07;5.73;;;;;;;;;;5035092;28;20567;-57
2023/07/03 01:59:51;;;;;;;6.60;5.23;;;;;;;;;;5035212;28;20463;-57
2023/07/03 02:02:20;;;;;;;7.33;5.00;;;;;;;;;;5035130;28;20451;-57
2023/07/03 02:04:51;;;;;;;5.67;5.00;;;;;;;;;;5034974;28;20580;-57
2023/07/03 02:07:19;;;;;;;7.27;4.77;;;;;;;;;;5035189;28;20455;-57
2023/07/03 02:09:46;;;;;;;7.87;5.60;;;;;;;;;;5035043;28;20460;-57
2023/07/03 02:12:13;;;;;;;10.03;5.40;;;;;;;;;;5034887;28;20495;-57
2023/07/03 02:14:40;;;;;;;9.93;4.30;;;;;;;;;;5034888;28;20547;-57
2023/07/03 02:17:08;;;;;;;8.30;5.63;;;;;;;;;;5034728;28;20546;-57
2023/07/03 02:19:35;;;;;;;8.30;5.80;;;;;;;;;;5034722;28;20543;-56
2023/07/03 02:22:03;;;;;;;8.40;5.67;;;;;;;;;;5034888;28;20879;-56
2023/07/03 02:24:30;;;;;;;8.60;4.87;;;;;;;;;;5034766;28;20542;-57
2023/07/03 02:26:57;;;;;;;10.00;5.50;;;;;;;;;;5034173;28;20547;-57
2023/07/03 02:29:24;;;;;;;6.40;5.23;;;;;;;;;;5034525;28;20546;-57
2023/07/03 02:31:51;;;;;;;6.63;5.03;;;;;;;;;;5034344;28;20483;-57
2023/07/03 02:34:20;;;;;;;6.30;5.40;;;;;;;;;;5034654;28;20459;-57
2023/07/03 02:36:47;;;;;;;6.67;5.23;;;;;;;;;;5034706;28;20546;-57
2023/07/03 02:39:14;;;;;;;8.03;5.73;;;;;;;;;;5034434;28;20535;-57
2023/07/03 02:41:41;;;;;;;6.77;5.33;;;;;;;;;;5034335;28;20558;-58
2023/07/03 02:44:08;;;;;;;5.57;4.93;;;;;;;;;;5034280;28;20534;-57
2023/07/03 02:46:35;;;;;;;6.50;5.03;;;;;;;;;;5034136;28;20455;-57
2023/07/03 02:49:03;;;;;;;6.23;5.57;;;;;;;;;;5034357;28;20534;-57
2023/07/03 02:51:31;;;;;;;6.77;5.43;;;;;;;;;;5034124;28;20482;-57
2023/07/03 02:53:58;;;;;;;11.60;5.80;;;;;;;;;;5034160;28;20898;-57
2023/07/03 02:56:25;;;;;;;8.07;5.10;;;;;;;;;;5033960;28;20474;-57
2023/07/03 02:58:52;;;;;;;12.87;5.57;;;;;;;;;;5033900;28;20455;-57
2023/07/03 03:01:19;;;;;;;8.77;5.77;;;;;;;;;;5034121;28;20551;-57
2023/07/03 03:03:46;;;;;;;14.63;7.43;;;;;;;;;;5034064;28;20807;-56
2023/07/03 03:06:13;;;;;;;6.97;5.57;;;;;;;;;;5033956;28;20547;-57
2023/07/03 03:08:41;;;;;;;7.77;5.10;;;;;;;;;;5033803;28;20553;-57
2023/07/03 03:11:08;;;;;;;9.70;5.67;;;;;;;;;;5033594;28;20574;-56
2023/07/03 03:13:35;;;;;;;7.07;6.20;;;;;;;;;;5033658;28;20896;-57
2023/07/03 03:16:02;;;;;;;10.77;5.53;;;;;;;;;;5033576;28;21023;-57
2023/07/03 03:18:29;;;;;;;8.20;5.47;;;;;;;;;;5033779;28;20556;-57
2023/07/03 03:20:56;;;;;;;9.83;6.80;;;;;;;;;;5033690;28;20486;-56
2023/07/03 03:23:23;;;;;;;7.73;4.77;;;;;;;;;;5033638;28;20483;-57
2023/07/03 03:25:51;;;;;;;7.20;5.50;;;;;;;;;;5033441;28;20547;-56
2023/07/03 03:28:18;;;;;;;8.33;5.67;;;;;;;;;;5033364;28;20550;-57
2023/07/03 03:30:45;;;;;;;7.70;5.90;;;;;;;;;;5033497;28;20542;-57
2023/07/03 03:33:12;;;;;;;6.10;5.30;;;;;;;;;;5033448;28;20542;-57
2023/07/03 03:35:38;;;;;;;11.23;5.90;;;;;;;;;;5033414;28;20483;-57
2023/07/03 03:38:05;;;;;;;12.10;6.30;;;;;;;;;;5033300;28;20542;-57
2023/07/03 03:40:33;;;;;;;9.40;6.13;;;;;;;;;;5032476;28;20867;-56
2023/07/03 03:43:01;;;;;;;9.47;5.83;;;;;;;;;;5033461;28;20449;-57
2023/07/03 03:45:28;;;;;;;9.13;6.27;;;;;;;;;;5033133;28;20850;-58
2023/07/03 03:47:55;;;;;;;7.77;6.30;;;;;;;;;;5033227;28;20451;-57
2023/07/03 03:50:22;;;;;;;7.20;5.60;;;;;;;;;;5033031;28;20952;-57
2023/07/03 03:52:49;;;;;;;7.97;6.83;;;;;;;;;;5032929;28;20554;-57
2023/07/03 03:55:16;;;;;;;9.07;6.17;;;;;;;;;;5032778;28;20453;-57
2023/07/03 03:57:44;;;;;;;8.03;6.13;;;;;;;;;;5033200;28;20436;-57
2023/07/03 04:00:16;;;;;;;7.10;5.70;;;;;;;;;;5033108;28;20547;-57
2023/07/03 04:02:44;;;;;;;7.63;6.20;;;;;;;;;;5033025;28;20514;-57
2023/07/03 04:05:11;;;;;;;8.03;5.13;;;;;;;;;;5032976;28;20483;-57
2023/07/03 04:07:38;;;;;;;9.30;6.20;;;;;;;;;;5032849;28;20940;-56
2023/07/03 04:10:06;;;;;;;8.30;6.67;;;;;;;;;;5033066;28;20455;-57
2023/07/03 04:12:33;;;;;;;6.10;4.87;;;;;;;;;;5032807;28;20487;-57
2023/07/03 04:15:00;;;;;;;6.27;5.60;;;;;;;;;;5032931;28;20539;-57
2023/07/03 04:17:28;;;;;;;13.53;5.93;;;;;;;;;;5032806;28;20544;-57
2023/07/03 04:19:55;;;;;;;6.30;5.27;;;;;;;;;;5032735;28;21019;-57
2023/07/03 04:22:22;;;;;;;8.90;6.80;;;;;;;;;;5032612;28;20507;-57
2023/07/03 04:24:48;;;;;;;8.80;6.40;;;;;;;;;;5032620;28;20524;-56
2023/07/03 04:27:15;;;;;;;8.33;6.10;;;;;;;;;;5032746;28;20457;-55
2023/07/03 04:29:42;;;;;;;10.63;6.20;;;;;;;;;;5032766;28;20539;-56
2023/07/03 04:32:09;;;;;;;8.17;5.40;;;;;;;;;;5032567;28;20496;-55
2023/07/03 04:34:38;;;;;;;8.30;5.87;;;;;;;;;;5032519;28;20468;-56
2023/07/03 04:37:05;;;;;;;10.53;6.77;;;;;;;;;;5032633;28;20459;-56
2023/07/03 04:39:32;;;;;;;9.80;6.30;;;;;;;;;;5032679;28;20517;-56
2023/07/03 04:42:00;;;;;;;9.10;5.70;;;;;;;;;;5032608;28;20475;-56
2023/07/03 04:44:27;;;;;;;9.97;6.07;;;;;;;;;;5032472;28;20452;-55
2023/07/03 04:46:55;;;;;;;16.80;7.10;;;;;;;;;;5032486;28;20873;-56
2023/07/03 04:49:23;;;;;;;7.80;6.20;;;;;;;;;;5032389;28;20928;-56
2023/07/03 04:51:52;;;;;;;10.30;5.60;;;;;;;;;;5035588;28;20481;-55
2023/07/03 04:54:20;;;;;;;8.67;6.20;;;;;;;;;;5036388;28;20467;-56
2023/07/03 04:56:48;;;;;;;10.23;6.10;;;;;;;;;;5036056;28;20479;-56
2023/07/03 04:59:15;;;;;;;10.70;7.13;;;;;;;;;;5036168;28;20457;-57
2023/07/03 05:01:43;;;;;;;12.30;6.60;;;;;;;;;;5036156;28;20463;-56
2023/07/03 05:04:09;;;;;;;7.13;6.03;;;;;;;;;;5036258;28;20456;-56
2023/07/03 05:06:37;;;;;;;13.20;7.20;;;;;;;;;;5036236;28;20883;-56
2023/07/03 05:09:05;;;;;;;7.50;6.47;;;;;;;;;;5036011;28;20538;-54
2023/07/03 05:11:33;;;;;;;11.37;6.87;;;;;;;;;;5036010;28;20900;-56
2023/07/03 05:14:00;;;;;;;9.00;6.20;;;;;;;;;;5035919;28;20543;-55
2023/07/03 05:16:27;;;;;;;11.10;6.83;;;;;;;;;;5035804;28;20551;-56
2023/07/03 05:18:54;;;;;;;7.53;6.70;;;;;;;;;;5036080;28;20487;-56
2023/07/03 05:21:21;;;;;;;10.30;6.80;;;;;;;;;;5035740;28;20550;-55
2023/07/03 05:23:48;;;;;;;9.20;6.67;;;;;;;;;;5035737;28;20543;-56
2023/07/03 05:26:16;;;;;;;15.27;6.83;;;;;;;;;;5035677;28;20540;-56
2023/07/03 05:28:43;;;;;;;12.90;7.27;;;;;;;;;;5035528;28;20822;-56
2023/07/03 05:31:10;;;;;;;11.83;7.43;;;;;;;;;;5035490;28;20545;-55
2023/07/03 05:33:37;;;;;;;13.30;7.13;;;;;;;;;;5035580;28;20547;-56
2023/07/03 05:36:04;;;;;;;7.43;5.87;;;;;;;;;;5035671;28;20544;-56
2023/07/03 05:38:31;;;;;;;10.80;6.90;;;;;;;;;;5035408;28;20485;-56
2023/07/03 05:40:59;;;;;;;13.60;6.53;;;;;;;;;;5035365;28;20540;-57
2023/07/03 05:43:27;;;;;;;11.80;6.20;;;;;;;;;;5035298;28;20453;-57
2023/07/03 05:45:54;;;;;;;13.30;6.67;;;;;;;;;;5035511;28;20844;-56
2023/07/03 05:48:21;;;;;;;10.23;6.80;;;;;;;;;;5035466;28;20477;-57
2023/07/03 05:50:48;;;;;;;10.43;7.13;;;;;;;;;;5035369;28;20544;-56
2023/07/03 05:53:15;;;;;;;7.00;5.73;;;;;;;;;;5035156;28;20488;-56
2023/07/03 05:55:43;;;;;;;10.33;5.93;;;;;;;;;;5035008;28;20569;-55
2023/07/03 05:58:11;;;;;;;7.70;6.03;;;;;;;;;;5034882;28;20450;-56
2023/07/03 06:00:40;;;;;;;10.30;7.00;;;;;;;;;;5035002;28;20484;-55
2023/07/03 06:03:11;;;;;;;8.23;5.87;;;;;;;;;;5034392;28;20507;-55
2023/07/03 06:05:38;;;;;;;8.37;6.13;;;;;;;;;;5035066;28;20540;-57
2023/07/03 06:08:05;;;;;;;10.53;6.37;;;;;;;;;;5034993;28;20478;-56
2023/07/03 06:10:32;;;;;;;11.20;6.23;;;;;;;;;;5034779;28;20547;-55
2023/07/03 06:12:59;;;;;;;8.17;6.33;;;;;;;;;;5034868;28;20491;-58
2023/07/03 06:15:26;;;;;;;8.57;5.83;;;;;;;;;;5034821;28;20481;-55
2023/07/03 06:17:55;;;;;;;12.33;6.10;;;;;;;;;;5034616;28;20549;-55
2023/07/03 06:20:22;;;;;;;14.40;6.30;;;;;;;;;;5034377;28;20460;-56
2023/07/03 06:22:49;;;;;;;6.47;5.50;;;;;;;;;;5034376;28;20973;-54
2023/07/03 06:25:16;;;;;;;8.60;5.70;;;;;;;;;;5034493;28;20492;-55
2023/07/03 06:27:43;;;;;;;9.23;5.50;;;;;;;;;;5034477;28;20543;-55
2023/07/03 06:30:10;;;;;;;9.57;5.87;;;;;;;;;;5034361;28;20540;-56
2023/07/03 06:32:37;;;;;;;12.77;6.37;;;;;;;;;;5034364;28;20504;-55
2023/07/03 06:35:06;;;;;;;9.80;6.20;;;;;;;;;;5034486;28;20545;-55
2023/07/03 06:37:33;;;;;;;10.03;6.30;;;;;;;;;;5034210;28;20537;-55
2023/07/03 06:40:00;;;;;;;6.70;5.50;;;;;;;;;;5026125;28;20545;-56
2023/07/03 06:42:26;;;;;;;11.43;5.77;;;;;;;;;;5014461;28;20569;-57
2023/07/03 06:44:53;;;;;;;8.37;6.40;;;;;;;;;;5014162;28;20541;-55
2023/07/03 06:47:20;;;;;;;6.63;5.03;;;;;;;;;;5014235;28;20477;-56
2023/07/03 06:49:47;;;;;;;13.20;5.87;;;;;;;;;;5014075;28;20565;-57
2023/07/03 06:52:15;;;;;;;11.70;5.90;;;;;;;;;;5013984;28;20557;-57
2023/07/03 06:54:42;;;;;;;12.60;5.60;;;;;;;;;;5014019;28;20984;-58
2023/07/03 06:57:09;;;;;;;6.83;5.60;;;;;;;;;;5013718;28;20486;-56
2023/07/03 06:59:36;;;;;;;6.23;5.10;;;;;;;;;;5013955;28;20550;-57
2023/07/03 07:02:03;;;;;;;12.23;6.40;;;;;;;;;;5013859;28;20542;-55
2023/07/03 07:04:30;;;;;;;10.13;5.33;;;;;;;;;;5014055;28;20557;-57
2023/07/03 07:06:57;;;;;;;7.77;4.90;;;;;;;;;;5016840;28;20447;-56
2023/07/03 07:09:25;;;;;;;9.80;5.70;;;;;;;;;;5014043;28;20485;-58
2023/07/03 07:11:52;;;;;;;6.80;4.87;;;;;;;;;;5030476;28;20442;-55
2023/07/03 07:14:19;;;;;;;10.43;5.27;;;;;;;;;;5032613;28;20543;-58
2023/07/03 07:16:46;;;;;;;11.67;5.70;;;;;;;;;;5033450;28;20446;-57
2023/07/03 07:19:13;;;;;;;8.87;4.87;;;;;;;;;;5033370;28;20544;-57
2023/07/03 07:21:42;;;;;;;11.03;5.37;;;;;;;;;;5033631;28;20559;-57
2023/07/03 07:24:15;;;;;;;11.70;4.87;;;;;;;;;;5033567;28;20808;-58
2023/07/03 07:26:44;;;;;;;7.83;4.70;;;;;;;;;;5033456;28;20454;-55
2023/07/03 07:29:11;;;;;;;13.73;5.83;;;;;;;;;;5033507;28;20450;-58
2023/07/03 07:31:38;;;;;;;11.73;4.87;;;;;;;;;;5033115;28;20497;-58
2023/07/03 07:34:05;;;;;;;10.03;4.80;;;;;;;;;;5033380;28;20572;-55
2023/07/03 07:36:32;;;;;;;7.23;4.37;;;;;;;;;;5033114;28;20544;-56
2023/07/03 07:39:00;;;;;;;8.87;6.43;;;;;;;;;;5033250;28;20481;-55
2023/07/03 07:41:27;;;;;;;6.30;4.70;;;;;;;;;;5033109;28;21020;-55
2023/07/03 07:43:58;;;;;;;6.83;4.80;;;;;;;;;;5032824;28;20541;-54
2023/07/03 07:46:26;;;;;;;8.07;4.70;;;;;;;;;;5033002;28;20505;-56
2023/07/03 07:48:53;;;;;;;13.03;5.00;;;;;;;;;;5032970;28;20450;-58
2023/07/03 07:51:20;;;;;;;10.10;4.60;;;;;;;;;;5033034;28;20536;-56
2023/07/03 07:53:47;;;;;;;7.03;4.30;;;;;;;;;;5032863;28;20505;-56
2023/07/03 07:56:14;;;;;;;5.93;4.33;;;;;;;;;;5032792;28;20521;-57
2023/07/03 07:58:41;;;;;;;6.82;4.10;;;;;;;;;;5032455;28;20452;-58
2023/07/03 08:01:12;;;;;;;5.23;4.03;;;;;;;;;;5032737;28;20191;-58
2023/07/03 08:03:40;;;;;;;7.13;3.93;;;;;;;;;;5032822;28;20550;-56
2023/07/03 08:06:08;;;;;;;5.63;4.00;;;;;;;;;;5032731;28;20533;-53
2023/07/03 08:08:34;;;;;;;7.10;4.53;;;;;;;;;;5032618;28;20449;-57
2023/07/03 08:11:02;;;;;;;6.93;4.57;;;;;;;;;;5032548;28;20541;-58
2023/07/03 08:13:30;;;;;;;7.10;4.50;;;;;;;;;;5032398;28;20482;-59
2023/07/03 08:15:57;;;;;;;6.57;3.80;;;;;;;;;;5032549;28;20457;-55
2023/07/03 08:18:25;;;;;;;9.07;4.50;;;;;;;;;;5032699;28;20898;-54
2023/07/03 08:20:53;;;;;;;9.67;4.30;;;;;;;;;;5032585;28;20540;-58
2023/07/03 08:23:20;;;;;;;7.37;4.57;;;;;;;;;;5028014;28;20450;-58
2023/07/03 08:25:49;;;;;;;6.20;4.10;;;;;;;;;;5014290;28;20446;-58
2023/07/03 08:28:17;;;;;;;10.07;4.73;;;;;;;;;;5016915;28;20457;-57
2023/07/03 08:30:44;;;;;;;6.60;4.30;;;;;;;;;;5017021;28;20802;-55
2023/07/03 08:33:10;;;;;;;7.90;4.33;;;;;;;;;;5016863;28;20570;-54
2023/07/03 08:35:39;;;;;;;7.63;4.43;;;;;;;;;;5016754;28;20545;-56
2023/07/03 08:38:08;;;;;;;6.27;4.10;;;;;;;;;;5016730;28;20542;-57
2023/07/03 08:40:35;;;;;;;11.33;4.67;;;;;;;;;;5016566;28;20530;-55
2023/07/03 08:43:03;;;;;;;7.60;5.20;;;;;;;;;;5016810;28;20545;-57
2023/07/03 08:45:34;;;;;;;10.73;4.83;;;;;;;;;;5016576;28;20454;-54
2023/07/03 08:48:02;;;;;;;8.23;5.57;;;;;;;;;;5016549;28;20543;-51
2023/07/03 08:50:30;;;;;;;8.90;5.10;;;;;;;;;;5016487;28;20545;-55
2023/07/03 08:53:00;;;;;;;9.57;4.67;;;;;;;;;;5016212;28;20529;-55
2023/07/03 08:55:30;;;;;;;6.80;4.80;;;;;;;;;;5016501;28;20905;-56
2023/07/03 08:57:57;;;;;;;4.40;4.00;;;;;;;;;;5016485;28;20452;-57
2023/07/03 09:00:24;;;;;;;9.87;4.50;;;;;;;;;;5016165;28;20545;-56
2023/07/03 09:02:54;;;;;;;9.17;4.40;;;;;;;;;;5016347;28;20964;-54
2023/07/03 09:05:26;;;;;;;9.53;4.67;;;;;;;;;;5015663;28;20457;-55
2023/07/03 09:07:55;;;;;;;7.63;4.03;;;;;;;;;;5016072;28;20541;-56
2023/07/03 09:10:28;;;;;;;8.10;4.60;;;;;;;;;;5015899;28;20461;-58
2023/07/03 09:12:58;;;;;;;8.90;5.17;;;;;;;;;;5015755;28;20992;-54
2023/07/03 09:15:29;;;;;;;11.40;5.20;;;;;;;;;;5016203;28;20939;-56
2023/07/03 09:17:57;;;;;;;9.97;4.00;;;;;;;;;;5016004;28;20543;-56
2023/07/03 09:20:24;;;;;;;7.97;4.20;;;;;;;;;;5015876;28;20453;-57
2023/07/03 09:22:54;;;;;;;7.07;4.30;;;;;;;;;;5016356;28;20458;-54
2023/07/03 09:25:24;;;;;;;5.57;4.23;;;;;;;;;;5015711;28;20486;-55
2023/07/03 09:27:55;;;;;;;7.57;4.67;;;;;;;;;;5016055;28;20516;-56
2023/07/03 09:30:23;;;;;;;7.47;5.23;;;;;;;;;;5015785;28;20482;-59
2023/07/03 09:32:50;;;;;;;7.37;4.70;;;;;;;;;;5015554;28;20604;-56
2023/07/03 09:35:18;;;;;;;8.57;5.20;;;;;;;;;;5015854;28;20537;-51
2023/07/03 09:37:46;;;;;;;9.50;4.60;;;;;;;;;;5013973;28;20535;-56
2023/07/03 09:40:15;;;;;;;8.10;4.43;;;;;;;;;;5015452;28;20469;-53
2023/07/03 09:42:42;;;;;;;7.40;4.87;;;;;;;;;;5015663;28;20980;-54
2023/07/03 09:45:14;;;;;;;7.53;4.77;;;;;;;;;;5015370;28;20504;-54
2023/07/03 09:47:42;;;;;;;7.00;4.90;;;;;;;;;;5015965;28;20780;-57
2023/07/03 09:50:09;;;;;;;7.17;4.00;;;;;;;;;;5018590;28;20447;-53
2023/07/03 09:52:42;;;;;;;5.83;4.30;;;;;;;;;;5015319;28;20861;-52
2023/07/03 09:55:09;;;;;;;7.00;4.43;;;;;;;;;;5022311;28;20446;-59
2023/07/03 09:57:38;;;;;;;6.20;4.33;;;;;;;;;;5035106;28;20513;-57
2023/07/03 10:00:11;;;;;;;7.10;4.27;;;;;;;;;;5035160;28;20500;-56
2023/07/03 10:02:40;;;;;;;6.80;3.93;;;;;;;;;;5034874;28;20452;-56
2023/07/03 10:05:08;;;;;;;8.17;3.67;;;;;;;;;;5034692;28;20460;-56
2023/07/03 10:07:40;;;;;;;5.10;3.70;;;;;;;;;;5034814;28;20446;-55
2023/07/03 10:10:10;;;;;;;9.03;3.77;;;;;;;;;;5031094;28;20475;-56
2023/07/03 10:12:38;;;;;;;4.77;4.10;;;;;;;;;;5015087;28;20446;-56
2023/07/03 10:15:08;;;;;;;7.97;4.13;;;;;;;;;;5014363;28;20956;-55
2023/07/03 10:17:37;;;;;;;5.90;4.03;;;;;;;;;;5014938;28;20603;-52
2023/07/03 10:20:09;;;;;;;6.88;3.97;;;;;;;;;;5013774;28;20458;-55
2023/07/03 10:22:38;;;;;;;7.77;3.40;;;;;;;;;;5014733;28;20196;-58
2023/07/03 10:25:06;;;;;;;8.50;4.00;;;;;;;;;;5014885;28;20458;-56
2023/07/03 10:27:34;;;;;;;4.97;3.20;;;;;;;;;;5014757;28;20545;-52
2023/07/03 10:30:04;;;;;;;7.10;3.43;;;;;;;;;;5014592;28;20857;-53
2023/07/03 10:32:33;;;;;;;6.80;2.90;;;;;;;;;;5014528;28;20458;-54
2023/07/03 10:35:02;;;;;;;5.70;3.03;;;;;;;;;;5014363;28;20544;-58
2023/07/03 10:37:33;;;;;;;8.23;3.67;;;;;;;;;;5014422;28;20549;-58
2023/07/03 10:40:04;;;;;;;4.50;3.13;;;;;;;;;;5014516;28;20561;-55
2023/07/03 10:42:32;;;;;;;7.93;3.10;;;;;;;;;;5014511;28;20494;-58
2023/07/03 10:45:01;;;;;;;8.67;3.63;;;;;;;;;;5013816;28;20898;-56
2023/07/03 10:47:32;;;;;;;6.10;3.30;;;;;;;;;;5014266;28;20542;-56
2023/07/03 10:49:59;;;;;;;7.13;3.17;;;;;;;;;;5014281;28;20537;-57
2023/07/03 10:52:30;;;;;;;5.80;3.00;;;;;;;;;;5014210;28;20501;-55
2023/07/03 10:55:03;;;;;;;4.50;2.87;;;;;;;;;;5014214;28;20486;-56
2023/07/03 10:57:34;;;;;;;7.73;2.80;;;;;;;;;;5014317;28;20546;-57
2023/07/03 11:00:06;;;;;;;5.10;3.67;;;;;;;;;;5013992;28;20810;-58
2023/07/03 11:02:36;;;;;;;6.03;4.00;;;;;;;;;;5014103;28;20556;-57
2023/07/03 11:05:07;;;;;;;5.60;3.00;;;;;;;;;;5014050;28;20460;-56
2023/07/03 11:07:36;;;;;;;7.10;2.60;;;;;;;;;;5024357;28;20442;-56
2023/07/03 11:10:07;;;;;;;5.70;2.77;;;;;;;;;;5033689;28;20449;-56
2023/07/03 11:12:37;;;;;;;6.63;3.50;;;;;;;;;;5033617;28;20480;-56
2023/07/03 11:15:08;;;;;;;5.87;2.80;;;;;;;;;;5033674;28;20492;-54
2023/07/03 11:17:42;;;;;;;7.00;3.57;;;;;;;;;;5033698;28;20556;-54
2023/07/03 11:20:11;;;;;;;9.30;3.30;;;;;;;;;;5033469;28;20449;-53
2023/07/03 11:22:42;;;;;;;6.63;3.07;;;;;;;;;;5033418;28;20449;-54
2023/07/03 11:25:13;;;;;;;6.33;2.60;;;;;;;;;;5033164;28;20553;-52
2023/07/03 11:27:45;;;;;;;4.60;2.70;;;;;;;;;;5033647;28;20852;-53
2023/07/03 11:30:14;;;;;;;8.23;3.13;;;;;;;;;;5033351;28;20456;-56
2023/07/03 11:32:41;;;;;;;6.80;3.13;;;;;;;;;;5033738;28;20446;-58
2023/07/03 11:35:09;;;;;;;11.90;2.63;;;;;;;;;;5015558;28;20993;-57
2023/07/03 11:37:43;;;;;;;5.80;3.10;;;;;;;;;;5033053;28;20940;-57
2023/07/03 11:40:33;;;;;;;5.70;2.77;;;;;;;;;;5033067;28;20805;-58
2023/07/03 11:43:21;;;;;;;5.90;2.70;;;;;;;;;;5033115;28;20516;-57
2023/07/03 11:45:52;;;;;;;6.60;2.53;;;;;;;;;;5033089;28;20450;-60
2023/07/03 11:48:19;;;;;;;5.38;3.10;;;;;;;;;;5032245;28;20547;-58
2023/07/03 11:50:54;;;;;;;4.37;2.80;;;;;;;;;;5033083;28;20195;-57
2023/07/03 11:53:29;;;;;;;8.07;2.93;;;;;;;;;;5033021;28;20453;-57
2023/07/03 11:55:57;;;;;;;5.83;2.73;;;;;;;;;;5032616;28;20489;-55
2023/07/03 11:58:26;;;;;;;3.90;2.57;;;;;;;;;;5032792;28;20511;-55
2023/07/03 12:01:08;;;;;;;4.40;2.83;;;;;;;;;;5032328;28;20454;-55
2023/07/03 12:03:50;;;;;;;6.23;2.90;;;;;;;;;;5031766;28;20489;-54
2023/07/03 12:06:32;;;;;;;6.70;2.70;;;;;;;;;;5032552;28;20453;-57
2023/07/03 12:09:14;;;;;;;6.70;2.93;;;;;;;;;;5032010;28;20457;-56
2023/07/03 12:11:56;;;;;;;6.77;2.60;;;;;;;;;;5031848;28;20813;-57
2023/07/03 12:14:42;;;;;;;4.37;2.40;;;;;;;;;;5012950;28;20617;-56
2023/07/03 12:17:17;;;;;;;5.63;2.40;;;;;;;;;;5012762;28;20481;-52
2023/07/03 12:19:44;;;;;;;5.77;2.70;;;;;;;;;;5013135;28;20457;-56
2023/07/03 12:22:13;;;;;;;8.57;3.67;;;;;;;;;;5012904;28;20461;-55
2023/07/03 12:24:40;;;;;;;3.37;2.30;;;;;;;;;;5012816;28;20454;-54
2023/07/03 12:27:08;;;;;;;6.03;2.37;;;;;;;;;;5012622;28;20533;-57
2023/07/03 12:29:37;;;;;;;5.00;2.47;;;;;;;;;;5012534;28;20461;-57
2023/07/03 12:32:07;;;;;;;4.00;2.43;;;;;;;;;;5012599;28;20478;-57
2023/07/03 12:34:36;;;;;;;4.60;2.30;;;;;;;;;;5012572;28;20575;-56
2023/07/03 12:37:05;;;;;;;5.93;3.00;;;;;;;;;;5012662;28;20542;-57
2023/07/03 12:39:33;;;;;;;8.13;2.90;;;;;;;;;;5012659;28;20454;-57
2023/07/03 12:42:07;;;;;;;4.67;2.40;;;;;;;;;;5012246;28;20950;-56
2023/07/03 12:44:34;;;;;;;7.30;2.33;;;;;;;;;;5012673;28;20486;-57
2023/07/03 12:47:08;;;;;;;3.70;2.20;;;;;;;;;;5012463;28;20537;-59
2023/07/03 12:49:47;;;;;;;4.03;2.63;;;;;;;;;;5012492;28;20830;-57
2023/07/03 12:52:15;;;;;;;4.37;2.43;;;;;;;;;;5012515;28;20879;-58
2023/07/03 12:54:42;;;;;;;7.00;2.47;;;;;;;;;;5012339;28;20886;-56
2023/07/03 12:57:09;;;;;;;3.40;2.40;;;;;;;;;;5012215;28;20557;-55
2023/07/03 12:59:36;;;;;;;7.33;3.07;;;;;;;;;;5012660;28;20450;-56
2023/07/03 13:02:04;;;;;;;7.77;2.70;;;;;;;;;;5012530;28;20454;-55
2023/07/03 13:04:31;;;;;;;4.23;2.03;;;;;;;;;;5022382;28;20515;-55
2023/07/03 13:07:00;;;;;;;7.73;3.03;;;;;;;;;;5018193;28;20442;-56
2023/07/03 13:09:28;;;;;;;6.60;3.03;;;;;;;;;;5018681;28;20446;-55
2023/07/03 13:11:55;;;;;;;7.90;3.17;;;;;;;;;;5020918;28;20450;-55
2023/07/03 13:14:23;;;;;;;5.67;3.00;;;;;;;;;;5026578;28;20983;-54
2023/07/03 13:16:51;;;;;;;5.93;2.30;;;;;;;;;;5022181;28;20450;-56
2023/07/03 13:19:26;;;;;;;8.57;2.80;;;;;;;;;;5021550;28;21004;-56
2023/07/03 13:21:53;;;;;;;6.73;2.63;;;;;;;;;;5025760;28;20468;-55
2023/07/03 13:24:23;;;;;;;5.13;2.30;;;;;;;;;;5024339;28;20454;-55
2023/07/03 13:26:51;;;;;;;5.30;3.00;;;;;;;;;;5015665;28;20450;-55
2023/07/03 13:29:22;;;;;;;6.33;2.53;;;;;;;;;;5015497;28;20946;-55
2023/07/03 13:31:49;;;;;;;7.67;2.80;;;;;;;;;;5015795;28;20482;-58
2023/07/03 13:34:18;;;;;;;5.90;2.40;;;;;;;;;;5015683;28;20480;-55
2023/07/03 13:36:46;;;;;;;7.20;3.20;;;;;;;;;;5015964;28;20528;-56
2023/07/03 13:39:14;;;;;;;9.87;2.80;;;;;;;;;;5015850;28;21010;-56
2023/07/03 13:41:42;;;;;;;7.60;2.40;;;;;;;;;;5015576;28;20555;-57
2023/07/03 13:44:10;;;;;;;6.70;2.87;;;;;;;;;;5015283;28;20461;-55
2023/07/03 13:46:38;;;;;;;11.83;3.50;;;;;;;;;;5015114;28;20561;-56
2023/07/03 13:49:05;;;;;;;10.90;3.63;;;;;;;;;;5014826;28;20501;-56
2023/07/03 13:51:34;;;;;;;14.37;3.07;;;;;;;;;;5015149;28;20477;-56
2023/07/03 13:54:01;;;;;;;5.57;2.50;;;;;;;;;;5014988;28;20537;-56
2023/07/03 13:56:28;;;;;;;7.30;4.47;;;;;;;;;;5014896;28;20528;-56
2023/07/03 13:58:56;;;;;;;7.30;2.77;;;;;;;;;;5014782;28;20858;-55
2023/07/03 14:01:23;;;;;;;5.30;2.90;;;;;;;;;;5023115;28;20450;-57
2023/07/03 14:03:50;;;;;;;5.17;2.20;;;;;;;;;;5025527;28;20533;-56
2023/07/03 14:06:17;;;;;;;3.90;2.20;;;;;;;;;;5023752;28;20570;-58
2023/07/03 14:08:44;;;;;;;7.57;2.60;;;;;;;;;;5025016;28;20472;-57
2023/07/03 14:11:12;;;;;;;5.20;2.17;;;;;;;;;;5024848;28;20451;-57
2023/07/03 14:13:39;;;;;;;5.33;3.20;;;;;;;;;;5022429;28;20446;-56
2023/07/03 14:16:07;;;;;;;4.60;3.73;;;;;;;;;;5017744;28;20484;-55
2023/07/03 14:18:34;;;;;;;8.27;3.50;;;;;;;;;;5015141;28;20447;-57
2023/07/03 14:21:01;;;;;;;4.83;2.50;;;;;;;;;;5015021;28;20563;-56
2023/07/03 14:23:28;;;;;;;6.27;3.20;;;;;;;;;;5014413;28;20542;-56
2023/07/03 14:25:56;;;;;;;9.53;2.70;;;;;;;;;;5014564;28;20575;-56
2023/07/03 14:28:23;;;;;;;5.87;2.67;;;;;;;;;;5013766;28;20823;-56
2023/07/03 14:30:51;;;;;;;4.47;2.83;;;;;;;;;;5015111;28;20540;-57
2023/07/03 14:33:19;;;;;;;6.00;2.20;;;;;;;;;;5014755;28;20462;-57
2023/07/03 14:35:47;;;;;;;5.07;2.60;;;;;;;;;;5014691;28;20483;-55
2023/07/03 14:38:14;;;;;;;5.50;2.80;;;;;;;;;;5014807;28;20477;-57
2023/07/03 14:40:41;;;;;;;5.07;2.73;;;;;;;;;;5014654;28;20790;-57
2023/07/03 14:43:09;;;;;;;7.07;3.60;;;;;;;;;;5014457;28;20545;-57
2023/07/03 14:45:36;;;;;;;10.57;2.70;;;;;;;;;;5014627;28;20537;-56
2023/07/03 14:48:03;;;;;;;6.60;2.43;;;;;;;;;;5014571;28;20553;-56